createdAt,value
2014-07-06T15:08:42.877Z,758
2014-07-06T15:09:00.614Z,759
2014-07-06T15:09:17.582Z,759
2014-07-06T15:09:34.692Z,758
2014-07-06T15:09:52.426Z,758
2014-07-06T15:10:10.662Z,758
2014-07-06T15:10:29.037Z,758
2014-07-06T15:10:47.475Z,759
2014-07-06T15:11:05.711Z,759
2014-07-06T15:11:23.461Z,758
2014-07-06T15:11:39.180Z,759
2014-07-06T15:11:56.166Z,759
2014-07-06T15:12:13.135Z,759
2014-07-06T15:12:30.745Z,759
2014-07-06T15:12:48.979Z,758
2014-07-06T15:13:05.965Z,758
2014-07-06T15:13:23.575Z,759
2014-07-06T15:13:41.309Z,759
2014-07-06T15:13:59.044Z,758
2014-07-06T15:14:16.654Z,758
2014-07-06T15:14:34.888Z,758
2014-07-06T15:14:53.294Z,758
2014-07-06T15:15:10.906Z,758
2014-07-06T15:15:28.515Z,759
2014-07-06T15:15:45.484Z,758
2014-07-06T15:16:03.080Z,758
2014-07-06T15:16:21.314Z,758
2014-07-06T15:16:38.923Z,758
2014-07-06T15:16:56.535Z,758
2014-07-06T15:17:14.894Z,759
2014-07-06T15:17:32.504Z,759
2014-07-06T15:17:50.160Z,758
2014-07-06T15:18:07.896Z,759
2014-07-06T15:18:25.006Z,758
2014-07-06T15:18:43.240Z,759
2014-07-06T15:19:01.461Z,758
2014-07-06T15:19:19.070Z,758
2014-07-06T15:19:36.679Z,759
2014-07-06T15:19:54.914Z,758
2014-07-06T15:20:13.197Z,758
2014-07-06T15:20:30.791Z,758
2014-07-06T15:20:49.025Z,758
2014-07-06T15:21:06.012Z,758
2014-07-06T15:21:22.980Z,759
2014-07-06T15:21:40.590Z,758
2014-07-06T15:21:58.201Z,758
2014-07-06T15:22:15.170Z,758
2014-07-06T15:22:33.545Z,758
2014-07-06T15:22:50.654Z,758
2014-07-06T15:23:07.766Z,758
2014-07-06T15:23:25.375Z,758
2014-07-06T15:23:42.516Z,758
2014-07-06T15:23:58.877Z,758
2014-07-06T15:24:17.143Z,758
2014-07-06T15:24:34.908Z,758
2014-07-06T15:24:51.924Z,758
2014-07-06T15:25:10.348Z,758
2014-07-06T15:25:27.363Z,758
2014-07-06T15:25:45.566Z,758
2014-07-06T15:26:03.161Z,758
2014-07-06T15:26:21.396Z,758
2014-07-06T15:26:39.005Z,758
2014-07-06T15:26:57.239Z,758
2014-07-06T15:27:15.460Z,758
2014-07-06T15:27:33.694Z,758
2014-07-06T15:27:51.929Z,759
2014-07-06T15:28:08.916Z,758
2014-07-06T15:28:27.151Z,758
2014-07-06T15:28:45.526Z,758
2014-07-06T15:29:02.010Z,758
2014-07-06T15:29:20.262Z,758
2014-07-06T15:29:38.543Z,758
2014-07-06T15:29:56.153Z,758
2014-07-06T15:30:13.795Z,758
2014-07-06T15:30:31.498Z,758
2014-07-06T15:30:48.451Z,758
2014-07-06T15:31:06.062Z,758
2014-07-06T15:31:24.296Z,759
2014-07-06T15:31:42.531Z,759
2014-07-06T15:32:00.765Z,758
2014-07-06T15:32:18.377Z,759
2014-07-06T15:32:35.971Z,759
2014-07-06T15:32:53.705Z,759
2014-07-06T15:33:12.082Z,759
2014-07-06T15:33:29.051Z,760
2014-07-06T15:33:47.286Z,759
2014-07-06T15:34:04.270Z,760
2014-07-06T15:34:22.505Z,759
2014-07-06T15:34:40.115Z,760
2014-07-06T15:34:58.474Z,760
2014-07-06T15:35:16.710Z,758
2014-07-06T15:35:34.320Z,758
2014-07-06T15:35:51.289Z,759
2014-07-06T15:36:08.351Z,759
2014-07-06T15:36:24.728Z,758
2014-07-06T15:36:43.181Z,758
2014-07-06T15:37:00.181Z,757
2014-07-06T15:37:17.824Z,758
2014-07-06T15:37:35.527Z,758
2014-07-06T15:37:53.808Z,755
2014-07-06T15:38:12.027Z,756
2014-07-06T15:38:29.216Z,756
2014-07-06T15:38:46.826Z,755
2014-07-06T15:39:03.935Z,755
2014-07-06T15:39:21.563Z,755
2014-07-06T15:39:39.829Z,755
2014-07-06T15:39:57.454Z,756
2014-07-06T15:40:15.251Z,756
2014-07-06T15:40:32.236Z,756
2014-07-06T15:40:50.002Z,756
2014-07-06T15:41:07.627Z,755
2014-07-06T15:41:24.613Z,755
2014-07-06T15:41:42.926Z,755
2014-07-06T15:42:01.301Z,756
2014-07-06T15:42:19.488Z,756
2014-07-06T15:42:37.099Z,755
2014-07-06T15:42:54.756Z,755
2014-07-06T15:43:11.740Z,756
2014-07-06T15:43:29.992Z,755
2014-07-06T15:43:46.961Z,756
2014-07-06T15:44:05.195Z,756
2014-07-06T15:44:22.182Z,756
2014-07-06T15:44:39.791Z,755
2014-07-06T15:44:56.760Z,756
2014-07-06T15:45:14.369Z,755
2014-07-06T15:45:31.340Z,756
2014-07-06T15:45:49.574Z,755
2014-07-06T15:46:07.809Z,756
2014-07-06T15:46:26.045Z,756
2014-07-06T15:46:43.670Z,756
2014-07-06T15:47:01.889Z,756
2014-07-06T15:47:19.576Z,756
2014-07-06T15:47:37.297Z,756
2014-07-06T15:47:54.891Z,756
2014-07-06T15:48:12.688Z,756
2014-07-06T15:48:30.455Z,756
2014-07-06T15:48:48.127Z,757
2014-07-06T15:49:06.315Z,755
2014-07-06T15:49:23.926Z,755
2014-07-06T15:49:41.645Z,755
2014-07-06T15:49:58.801Z,755
2014-07-06T15:50:17.176Z,755
2014-07-06T15:50:35.412Z,755
2014-07-06T15:50:53.194Z,755
2014-07-06T15:51:10.819Z,755
2014-07-06T15:51:28.477Z,755
2014-07-06T15:51:46.258Z,755
2014-07-06T15:52:02.836Z,755
2014-07-06T15:52:21.258Z,756
2014-07-06T15:52:38.963Z,755
2014-07-06T15:52:56.588Z,755
2014-07-06T15:53:14.807Z,756
2014-07-06T15:53:32.418Z,755
2014-07-06T15:53:49.465Z,756
2014-07-06T15:54:06.403Z,755
2014-07-06T15:54:24.717Z,756
2014-07-06T15:54:42.373Z,756
2014-07-06T15:55:00.686Z,755
2014-07-06T15:55:19.030Z,756
2014-07-06T15:55:36.109Z,755
2014-07-06T15:55:53.078Z,755
2014-07-06T15:56:10.812Z,756
2014-07-06T15:56:28.611Z,756
2014-07-06T15:56:46.205Z,755
2014-07-06T15:57:04.470Z,755
2014-07-06T15:57:22.800Z,755
2014-07-06T15:57:39.753Z,755
2014-07-06T15:57:58.019Z,755
2014-07-06T15:58:15.660Z,755
2014-07-06T15:58:33.365Z,754
2014-07-06T15:58:50.396Z,754
2014-07-06T15:59:08.021Z,754
2014-07-06T15:59:26.304Z,754
2014-07-06T15:59:43.898Z,754
2014-07-06T16:00:01.554Z,754
2014-07-06T16:00:19.211Z,754
2014-07-06T16:00:36.947Z,754
2014-07-06T16:00:55.181Z,754
2014-07-06T16:01:13.447Z,754
2014-07-06T16:01:30.511Z,754
2014-07-06T16:01:48.840Z,754
2014-07-06T16:02:05.793Z,754
2014-07-06T16:02:24.044Z,754
2014-07-06T16:02:42.419Z,754
2014-07-06T16:02:59.434Z,754
2014-07-06T16:03:16.434Z,754
2014-07-06T16:03:34.672Z,754
2014-07-06T16:03:52.281Z,754
2014-07-06T16:04:09.969Z,754
2014-07-06T16:04:28.174Z,754
2014-07-06T16:04:45.799Z,754
2014-07-06T16:05:03.439Z,755
2014-07-06T16:05:21.189Z,754
2014-07-06T16:05:38.832Z,755
2014-07-06T16:05:57.113Z,755
2014-07-06T16:06:14.176Z,754
2014-07-06T16:06:31.224Z,755
2014-07-06T16:06:48.177Z,754
2014-07-06T16:07:05.802Z,755
2014-07-06T16:07:23.413Z,755
2014-07-06T16:07:40.429Z,754
2014-07-06T16:07:58.663Z,755
2014-07-06T16:08:17.866Z,755
2014-07-06T16:08:36.103Z,754
2014-07-06T16:08:54.368Z,754
2014-07-06T16:09:11.415Z,754
2014-07-06T16:09:29.683Z,754
2014-07-06T16:09:48.058Z,754
2014-07-06T16:10:05.792Z,755
2014-07-06T16:10:23.560Z,755
2014-07-06T16:10:40.825Z,755
2014-07-06T16:10:57.935Z,755
2014-07-06T16:11:15.685Z,755
2014-07-06T16:11:34.046Z,755
2014-07-06T16:11:51.702Z,755
2014-07-06T16:12:09.999Z,755
2014-07-06T16:12:27.642Z,755
2014-07-06T16:12:45.236Z,755
2014-07-06T16:13:02.861Z,755
2014-07-06T16:13:21.157Z,755
2014-07-06T16:13:38.113Z,755
2014-07-06T16:13:55.753Z,755
2014-07-06T16:14:12.753Z,755
2014-07-06T16:14:31.020Z,755
2014-07-06T16:14:49.614Z,755
2014-07-06T16:15:07.223Z,755
2014-07-06T16:15:25.459Z,755
2014-07-06T16:15:43.100Z,755
2014-07-06T16:16:00.709Z,755
2014-07-06T16:16:18.397Z,755
2014-07-06T16:16:35.383Z,755
2014-07-06T16:16:52.993Z,754
2014-07-06T16:17:10.618Z,754
2014-07-06T16:17:27.588Z,754
2014-07-06T16:17:45.823Z,754
2014-07-06T16:18:03.573Z,754
2014-07-06T16:18:21.807Z,754
2014-07-06T16:18:40.043Z,754
2014-07-06T16:18:58.293Z,754
2014-07-06T16:19:16.528Z,754
2014-07-06T16:19:34.124Z,754
2014-07-06T16:19:52.358Z,754
2014-07-06T16:20:09.952Z,754
2014-07-06T16:20:28.188Z,754
2014-07-06T16:20:46.422Z,754
2014-07-06T16:21:03.391Z,754
2014-07-06T16:21:21.079Z,754
2014-07-06T16:21:39.331Z,754
2014-07-06T16:21:56.534Z,754
2014-07-06T16:22:13.690Z,754
2014-07-06T16:22:31.958Z,754
2014-07-06T16:22:49.692Z,754
2014-07-06T16:23:37.788Z,754
2014-07-06T16:23:54.725Z,754
2014-07-06T16:24:12.319Z,754
2014-07-06T16:24:29.929Z,754
2014-07-06T16:24:47.601Z,754
2014-07-06T16:25:04.742Z,754
2014-07-06T16:25:22.351Z,754
2014-07-06T16:25:40.651Z,754
2014-07-06T16:25:58.917Z,754
2014-07-06T16:26:16.589Z,754
2014-07-06T16:26:32.981Z,754
2014-07-06T16:26:50.122Z,754
2014-07-06T16:27:08.497Z,754
2014-07-06T16:27:26.263Z,753
2014-07-06T16:27:43.999Z,754
2014-07-06T16:28:01.061Z,753
2014-07-06T16:28:19.280Z,753
2014-07-06T16:28:36.485Z,753
2014-07-06T16:28:54.735Z,754
2014-07-06T16:29:11.845Z,754
2014-07-06T16:29:30.188Z,754
2014-07-06T16:29:47.862Z,754
2014-07-06T16:30:05.487Z,754
2014-07-06T16:30:22.519Z,755
2014-07-06T16:30:40.754Z,755
2014-07-06T16:30:57.770Z,755
2014-07-06T16:31:16.082Z,755
2014-07-06T16:32:04.397Z,755
2014-07-06T16:32:22.631Z,755
2014-07-06T16:32:39.634Z,755
2014-07-06T16:32:56.025Z,755
2014-07-06T16:33:14.431Z,755
2014-07-06T16:33:32.087Z,755
2014-07-06T16:33:50.542Z,756
2014-07-06T16:34:08.902Z,756
2014-07-06T16:34:27.136Z,756
2014-07-06T16:34:44.746Z,756
2014-07-06T16:35:02.528Z,756
2014-07-06T16:35:20.762Z,756
2014-07-06T16:35:37.155Z,756
2014-07-06T16:35:54.967Z,756
2014-07-06T16:36:13.248Z,756
2014-07-06T16:36:30.280Z,756
2014-07-06T16:36:47.297Z,755
2014-07-06T16:37:05.594Z,754
2014-07-06T16:37:21.938Z,755
2014-07-06T16:37:38.393Z,755
2014-07-06T16:37:56.065Z,755
2014-07-06T16:38:13.752Z,756
2014-07-06T16:38:31.362Z,756
2014-07-06T16:38:49.754Z,756
2014-07-06T16:39:07.411Z,756
2014-07-06T16:39:25.707Z,756
2014-07-06T16:39:44.131Z,756
2014-07-06T16:40:01.975Z,756
2014-07-06T16:40:19.194Z,756
2014-07-06T16:40:36.272Z,756
2014-07-06T16:40:53.899Z,757
2014-07-06T16:41:12.118Z,757
2014-07-06T16:41:29.180Z,757
2014-07-06T16:41:46.823Z,757
2014-07-06T16:42:05.229Z,757
2014-07-06T16:42:22.838Z,757
2014-07-06T16:42:40.575Z,757
2014-07-06T16:42:58.309Z,757
2014-07-06T16:43:16.512Z,757
2014-07-06T16:43:33.840Z,757
2014-07-06T16:43:52.030Z,757
2014-07-06T16:44:09.780Z,757
2014-07-06T16:44:28.217Z,757
2014-07-06T16:44:45.250Z,757
2014-07-06T16:45:02.937Z,757
2014-07-06T16:45:19.984Z,757
2014-07-06T16:45:38.361Z,757
2014-07-06T16:45:56.017Z,757
2014-07-06T16:46:15.174Z,757
2014-07-06T16:46:32.330Z,757
2014-07-06T16:46:50.566Z,757
2014-07-06T16:47:08.176Z,758
2014-07-06T16:47:25.769Z,757
2014-07-06T16:47:43.412Z,757
2014-07-06T16:48:01.974Z,757
2014-07-06T16:48:19.615Z,757
2014-07-06T16:48:37.852Z,758
2014-07-06T16:48:55.618Z,757
2014-07-06T16:49:14.118Z,757
2014-07-06T16:49:32.493Z,756
2014-07-06T16:49:49.853Z,756
2014-07-06T16:50:08.307Z,756
2014-07-06T16:50:25.978Z,756
2014-07-06T16:50:42.449Z,756
2014-07-06T16:50:58.230Z,756
2014-07-06T16:51:16.527Z,756
2014-07-06T16:51:34.793Z,756
2014-07-06T16:51:51.826Z,756
2014-07-06T16:52:10.061Z,756
2014-07-06T16:52:28.326Z,755
2014-07-06T16:52:46.718Z,755
2014-07-06T16:53:04.327Z,756
2014-07-06T16:53:21.968Z,755
2014-07-06T16:53:39.017Z,755
2014-07-06T16:53:56.689Z,755
2014-07-06T16:54:13.907Z,756
2014-07-06T16:54:31.798Z,755
2014-07-06T16:54:49.612Z,755
2014-07-06T16:55:07.222Z,755
2014-07-06T16:55:25.519Z,755
2014-07-06T16:55:42.646Z,755
2014-07-06T16:56:00.458Z,755
2014-07-06T16:56:18.724Z,755
2014-07-06T16:56:36.443Z,755
2014-07-06T16:56:53.476Z,755
2014-07-06T16:57:11.726Z,755
2014-07-06T16:57:29.320Z,756
2014-07-06T16:57:47.573Z,756
2014-07-06T16:58:05.354Z,756
2014-07-06T16:58:23.744Z,756
2014-07-06T16:58:42.183Z,756
2014-07-06T16:58:58.605Z,756
2014-07-06T16:59:16.324Z,756
2014-07-06T16:59:33.433Z,756
2014-07-06T16:59:50.420Z,756
2014-07-06T17:00:08.795Z,756
2014-07-06T17:00:26.483Z,756
2014-07-06T17:00:44.313Z,756
2014-07-06T17:01:01.313Z,756
2014-07-06T17:01:18.985Z,756
2014-07-06T17:01:36.563Z,756
2014-07-06T17:01:52.909Z,756
2014-07-06T17:02:10.549Z,756
2014-07-06T17:02:27.487Z,756
2014-07-06T17:02:45.723Z,756
2014-07-06T17:03:03.473Z,756
2014-07-06T17:03:21.692Z,756
2014-07-06T17:03:39.474Z,756
2014-07-06T17:03:57.209Z,756
2014-07-06T17:04:15.443Z,756
2014-07-06T17:04:32.490Z,756
2014-07-06T17:04:49.476Z,756
2014-07-06T17:05:07.070Z,758
2014-07-06T17:05:24.820Z,758
2014-07-06T17:05:43.056Z,758
2014-07-06T17:06:00.713Z,758
2014-07-06T17:06:18.400Z,758
2014-07-06T17:06:35.431Z,758
2014-07-06T17:06:53.027Z,758
2014-07-06T17:07:10.636Z,758
2014-07-06T17:07:28.246Z,758
2014-07-06T17:07:46.717Z,758
2014-07-06T17:08:04.326Z,758
2014-07-06T17:08:22.560Z,758
2014-07-06T17:08:40.797Z,758
2014-07-06T17:08:58.390Z,757
2014-07-06T17:09:16.000Z,757
2014-07-06T17:09:34.250Z,758
2014-07-06T17:09:52.486Z,757
2014-07-06T17:10:10.221Z,757
2014-07-06T17:10:27.830Z,757
2014-07-06T17:10:45.441Z,757
2014-07-06T17:11:03.035Z,757
2014-07-06T17:11:20.707Z,757
2014-07-06T17:11:39.098Z,757
2014-07-06T17:11:57.333Z,757
2014-07-06T17:12:15.583Z,757
2014-07-06T17:12:33.176Z,757
2014-07-06T17:12:51.452Z,757
2014-07-06T17:13:09.061Z,758
2014-07-06T17:13:26.796Z,757
2014-07-06T17:13:44.446Z,757
2014-07-06T17:14:02.133Z,758
2014-07-06T17:14:20.368Z,757
2014-07-06T17:14:38.003Z,757
2014-07-06T17:14:56.237Z,757
2014-07-06T17:15:14.487Z,757
2014-07-06T17:15:32.784Z,757
2014-07-06T17:15:51.106Z,754
2014-07-06T17:16:09.340Z,753
2014-07-06T17:16:26.950Z,753
2014-07-06T17:16:44.565Z,753
2014-07-06T17:17:02.174Z,753
2014-07-06T17:17:19.971Z,753
2014-07-06T17:17:38.207Z,753
2014-07-06T17:17:56.441Z,753
2014-07-06T17:18:14.050Z,753
2014-07-06T17:18:32.285Z,753
2014-07-06T17:18:50.535Z,753
2014-07-06T17:19:08.144Z,753
2014-07-06T17:19:25.754Z,753
2014-07-06T17:24:14.512Z,753
2014-07-06T17:37:25.468Z,753
2014-07-06T17:38:35.376Z,753
2014-07-06T17:38:53.597Z,753
2014-07-06T17:39:10.582Z,753
2014-07-06T17:39:28.175Z,753
2014-07-06T17:39:45.787Z,753
2014-07-06T17:40:02.896Z,753
2014-07-06T17:40:20.490Z,753
2014-07-06T17:40:38.099Z,753
2014-07-06T17:40:56.319Z,753
2014-07-06T17:41:14.553Z,753
2014-07-06T17:41:32.788Z,753
2014-07-06T17:41:49.759Z,753
2014-07-06T17:42:07.994Z,754
2014-07-06T17:42:25.744Z,754
2014-07-06T17:42:43.339Z,753
2014-07-06T17:43:01.620Z,754
2014-07-06T17:43:19.354Z,754
2014-07-06T17:43:36.948Z,753
2014-07-06T17:43:54.559Z,754
2014-07-06T17:44:12.794Z,753
2014-07-06T17:44:29.762Z,754
2014-07-06T17:44:47.374Z,754
2014-07-06T17:45:04.343Z,754
2014-07-06T17:45:21.327Z,754
2014-07-06T17:45:38.921Z,754
2014-07-06T17:45:57.157Z,754
2014-07-06T17:46:14.751Z,753
2014-07-06T17:46:31.735Z,753
2014-07-06T17:46:49.347Z,753
2014-07-06T17:47:06.315Z,753
2014-07-06T17:47:24.550Z,753
2014-07-06T17:47:42.784Z,753
2014-07-06T17:48:00.380Z,753
2014-07-06T17:48:17.989Z,753
2014-07-06T17:48:34.333Z,753
2014-07-06T17:48:52.692Z,753
2014-07-06T17:49:10.429Z,754
2014-07-06T17:49:28.663Z,753
2014-07-06T17:49:46.882Z,754
2014-07-06T17:50:04.493Z,753
2014-07-06T17:50:22.728Z,753
2014-07-06T17:50:40.321Z,753
2014-07-06T17:50:57.931Z,753
2014-07-06T17:51:15.526Z,754
2014-07-06T17:51:33.136Z,753
2014-07-06T17:51:50.730Z,753
2014-07-06T17:52:08.341Z,753
2014-07-06T17:52:25.935Z,754
2014-07-06T17:52:43.544Z,753
2014-07-06T17:53:01.153Z,753
2014-07-06T17:53:18.266Z,753
2014-07-06T17:53:35.985Z,753
2014-07-06T17:53:52.469Z,753
2014-07-06T17:54:09.439Z,753
2014-07-06T17:54:26.423Z,754
2014-07-06T17:54:43.392Z,753
2014-07-06T17:55:01.626Z,753
2014-07-06T17:55:19.238Z,753
2014-07-06T17:55:36.222Z,753
2014-07-06T17:55:53.956Z,753
2014-07-06T17:56:12.193Z,753
2014-07-06T17:56:29.802Z,753
2014-07-06T17:56:48.021Z,753
2014-07-06T17:57:05.005Z,753
2014-07-06T17:57:23.242Z,753
2014-07-06T17:57:41.476Z,753
2014-07-06T17:57:59.070Z,753
2014-07-06T17:58:17.306Z,753
2014-07-06T17:58:35.540Z,753
2014-07-06T17:58:53.759Z,753
2014-07-06T17:59:11.996Z,753
2014-07-06T17:59:30.246Z,753
2014-07-06T17:59:48.605Z,753
2014-07-06T18:00:06.980Z,753
2014-07-06T18:00:24.716Z,754
2014-07-06T18:00:41.685Z,753
2014-07-06T18:00:59.919Z,753
2014-07-06T18:01:17.531Z,753
2014-07-06T18:01:35.765Z,753
2014-07-06T18:01:53.359Z,753
2014-07-06T18:02:11.594Z,753
2014-07-06T18:02:29.204Z,753
2014-07-06T18:02:46.797Z,753
2014-07-06T18:03:05.032Z,753
2014-07-06T18:03:22.644Z,753
2014-07-06T18:03:40.238Z,753
2014-07-06T18:03:57.972Z,753
2014-07-06T18:04:16.209Z,753
2014-07-06T18:04:34.443Z,753
2014-07-06T18:04:51.412Z,753
2014-07-06T18:05:09.021Z,754
2014-07-06T18:05:27.257Z,753
2014-07-06T18:05:44.850Z,753
2014-07-06T18:06:02.460Z,754
2014-07-06T18:06:20.696Z,753
2014-07-06T18:06:38.290Z,753
2014-07-06T18:06:55.899Z,753
2014-07-06T18:07:13.493Z,753
2014-07-06T18:07:31.730Z,753
2014-07-06T18:07:49.965Z,753
2014-07-06T18:08:08.183Z,753
2014-07-06T18:08:26.420Z,753
2014-07-06T18:08:44.654Z,753
2014-07-06T18:09:02.889Z,753
2014-07-06T18:09:20.482Z,753
2014-07-06T18:09:38.719Z,753
2014-07-06T18:09:55.703Z,753
2014-07-06T18:10:14.062Z,753
2014-07-06T18:10:31.674Z,753
2014-07-06T18:10:49.283Z,753
2014-07-06T18:11:07.518Z,753
2014-07-06T18:11:25.113Z,753
2014-07-06T18:11:43.348Z,754
2014-07-06T18:12:01.582Z,753
2014-07-06T18:12:19.816Z,753
2014-07-06T18:12:38.052Z,753
2014-07-06T18:12:56.286Z,753
2014-07-06T18:13:14.505Z,753
2014-07-06T18:13:32.742Z,753
2014-07-06T18:13:50.977Z,753
2014-07-06T18:14:09.336Z,753
2014-07-06T18:14:27.570Z,753
2014-07-06T18:14:45.166Z,753
2014-07-06T18:15:02.776Z,753
2014-07-06T18:15:20.369Z,753
2014-07-06T18:15:38.745Z,753
2014-07-06T18:15:56.964Z,753
2014-07-06T18:16:15.198Z,753
2014-07-06T18:16:32.811Z,753
2014-07-06T18:16:51.045Z,753
2014-07-06T18:17:09.280Z,753
2014-07-06T18:17:27.514Z,753
2014-07-06T18:17:45.749Z,753
2014-07-06T18:18:03.968Z,753
2014-07-06T18:18:21.577Z,754
2014-07-06T18:18:39.174Z,753
2014-07-06T18:18:56.784Z,753
2014-07-06T18:19:15.143Z,753
2014-07-06T18:19:33.377Z,753
2014-07-06T18:19:50.988Z,753
2014-07-06T18:20:09.222Z,753
2014-07-06T18:20:27.456Z,753
2014-07-06T18:20:45.677Z,753
2014-07-06T18:21:03.912Z,753
2014-07-06T18:21:20.880Z,753
2014-07-06T18:21:39.117Z,753
2014-07-06T18:21:56.726Z,753
2014-07-06T18:22:14.960Z,753
2014-07-06T18:22:33.179Z,753
2014-07-06T18:22:50.791Z,753
2014-07-06T18:23:08.525Z,753
2014-07-06T18:23:26.744Z,753
2014-07-06T18:23:44.355Z,753
2014-07-06T18:24:02.589Z,753
2014-07-06T18:24:20.199Z,753
2014-07-06T18:24:38.418Z,753
2014-07-06T18:24:56.029Z,753
2014-07-06T18:25:14.263Z,753
2014-07-06T18:25:32.498Z,753
2014-07-06T18:25:50.734Z,753
2014-07-06T18:26:08.953Z,753
2014-07-06T18:26:26.562Z,753
2014-07-06T18:26:43.549Z,753
2014-07-06T18:27:00.517Z,753
2014-07-06T18:27:18.127Z,753
2014-07-06T18:27:34.470Z,753
2014-07-06T18:27:52.707Z,753
2014-07-06T18:28:10.941Z,753
2014-07-06T18:28:29.176Z,753
2014-07-06T18:28:47.396Z,753
2014-07-06T18:29:05.006Z,753
2014-07-06T18:29:23.365Z,753
2014-07-06T18:29:41.599Z,753
2014-07-06T18:29:59.820Z,753
2014-07-06T18:30:18.055Z,753
2014-07-06T18:30:36.289Z,753
2014-07-06T18:30:54.525Z,753
2014-07-06T18:31:12.760Z,753
2014-07-06T18:31:30.994Z,753
2014-07-06T18:31:47.965Z,753
2014-07-06T18:32:05.574Z,753
2014-07-06T18:32:23.824Z,753
2014-07-06T18:32:40.793Z,753
2014-07-06T18:32:59.029Z,753
2014-07-06T18:33:16.623Z,753
2014-07-06T18:33:34.857Z,753
2014-07-06T18:33:53.094Z,753
2014-07-06T18:34:10.688Z,753
2014-07-06T18:34:28.297Z,753
2014-07-06T18:34:45.406Z,753
2014-07-06T18:35:03.627Z,753
2014-07-06T18:35:21.236Z,753
2014-07-06T18:35:39.471Z,753
2014-07-06T18:35:57.067Z,753
2014-07-06T18:36:15.301Z,753
2014-07-06T18:36:32.910Z,753
2014-07-06T18:36:50.504Z,754
2014-07-06T18:37:07.631Z,753
2014-07-06T18:37:24.600Z,754
2014-07-06T18:37:41.584Z,754
2014-07-06T18:37:59.178Z,754
2014-07-06T18:38:17.555Z,753
2014-07-06T18:38:34.524Z,754
2014-07-06T18:38:52.899Z,753
2014-07-06T18:39:10.493Z,752
2014-07-06T18:39:28.728Z,752
2014-07-06T18:39:46.962Z,753
2014-07-06T18:40:05.200Z,753
2014-07-06T18:40:22.809Z,753
2014-07-06T18:40:39.778Z,753
2014-07-06T18:40:57.387Z,752
2014-07-06T18:41:15.623Z,754
2014-07-06T18:41:33.842Z,754
2014-07-06T18:41:51.452Z,754
2014-07-06T18:42:09.062Z,754
2014-07-06T18:42:26.656Z,754
2014-07-06T18:42:44.874Z,754
2014-07-06T18:43:02.484Z,754
2014-07-06T18:43:18.830Z,754
2014-07-06T18:43:37.064Z,754
2014-07-06T18:43:55.298Z,754
2014-07-06T18:44:12.895Z,754
2014-07-06T18:44:30.504Z,754
2014-07-06T18:44:48.098Z,754
2014-07-06T18:45:05.708Z,754
2014-07-06T18:45:23.318Z,754
2014-07-06T18:45:40.912Z,754
2014-07-06T18:45:58.521Z,754
2014-07-06T18:46:15.492Z,754
2014-07-06T18:46:33.726Z,754
2014-07-06T18:46:50.695Z,754
2014-07-06T18:47:08.304Z,754
2014-07-06T18:47:26.541Z,754
2014-07-06T18:47:43.509Z,754
2014-07-06T18:48:01.119Z,754
2014-07-06T18:48:18.105Z,754
2014-07-06T18:48:35.715Z,754
2014-07-06T18:48:53.949Z,754
2014-07-06T18:49:10.918Z,754
2014-07-06T18:49:29.154Z,754
2014-07-06T18:49:47.373Z,754
2014-07-06T18:50:04.982Z,754
2014-07-06T18:50:21.953Z,754
2014-07-06T18:50:40.187Z,754
2014-07-06T18:50:58.422Z,754
2014-07-06T18:51:16.656Z,754
2014-07-06T18:51:34.892Z,754
2014-07-06T18:51:53.111Z,754
2014-07-06T18:52:11.486Z,754
2014-07-06T18:52:29.723Z,754
2014-07-06T18:52:47.316Z,754
2014-07-06T18:53:05.691Z,754
2014-07-06T18:53:23.929Z,754
2014-07-06T18:53:41.522Z,754
2014-07-06T18:53:59.132Z,754
2014-07-06T18:54:16.726Z,754
2014-07-06T18:54:34.336Z,754
2014-07-06T18:54:51.945Z,754
2014-07-06T18:55:10.164Z,754
2014-07-06T18:55:28.400Z,754
2014-07-06T18:55:46.010Z,754
2014-07-06T18:56:03.604Z,754
2014-07-06T18:56:21.838Z,754
2014-07-06T18:56:39.449Z,754
2014-07-06T18:56:57.184Z,754
2014-07-06T18:57:13.543Z,754
2014-07-06T18:57:31.154Z,753
2014-07-06T18:57:49.373Z,754
2014-07-06T18:58:07.608Z,754
2014-07-06T18:58:25.842Z,754
2014-07-06T18:58:43.438Z,754
2014-07-06T18:59:01.047Z,754
2014-07-06T18:59:19.281Z,754
2014-07-06T18:59:37.518Z,754
2014-07-06T18:59:55.127Z,754
2014-07-06T19:00:13.487Z,754
2014-07-06T19:00:31.723Z,753
2014-07-06T19:00:49.942Z,754
2014-07-06T19:01:08.176Z,754
2014-07-06T19:01:26.410Z,754
2014-07-06T19:01:44.146Z,754
2014-07-06T19:02:01.755Z,754
2014-07-06T19:02:19.349Z,754
2014-07-06T19:02:36.961Z,754
2014-07-06T19:02:55.180Z,754
2014-07-06T19:03:12.789Z,754
2014-07-06T19:03:31.024Z,753
2014-07-06T19:03:47.995Z,754
2014-07-06T19:04:06.229Z,753
2014-07-06T19:04:23.823Z,753
2014-07-06T19:04:40.809Z,753
2014-07-06T19:04:59.043Z,752
2014-07-06T19:05:16.637Z,752
2014-07-06T19:05:34.247Z,752
2014-07-06T19:05:52.467Z,752
2014-07-06T19:06:10.077Z,752
2014-07-06T19:06:26.420Z,750
2014-07-06T19:06:44.656Z,749
2014-07-06T19:07:02.250Z,747
2014-07-06T19:07:20.484Z,746
2014-07-06T19:07:38.718Z,744
2014-07-06T19:07:56.956Z,742
2014-07-06T19:08:15.190Z,741
2014-07-06T19:08:32.799Z,739
2014-07-06T19:08:49.144Z,737
2014-07-06T19:09:06.113Z,736
2014-07-06T19:09:24.347Z,734
2014-07-06T19:09:41.332Z,732
2014-07-06T19:09:58.302Z,730
2014-07-06T19:10:15.912Z,728
2014-07-06T19:10:34.146Z,726
2014-07-06T19:10:51.756Z,724
2014-07-06T19:11:09.492Z,721
2014-07-06T19:11:27.726Z,720
2014-07-06T19:11:45.320Z,717
2014-07-06T19:12:03.698Z,715
2014-07-06T19:12:21.932Z,713
2014-07-06T19:12:40.151Z,711
2014-07-06T19:12:58.388Z,709
2014-07-06T19:13:15.372Z,706
2014-07-06T19:13:33.591Z,704
2014-07-06T19:13:51.200Z,702
2014-07-06T19:14:08.796Z,701
2014-07-06T19:14:27.030Z,698
2014-07-06T19:14:45.249Z,695
2014-07-06T19:15:02.859Z,693
2014-07-06T19:15:21.094Z,691
2014-07-06T19:15:39.328Z,688
2014-07-06T19:15:57.547Z,686
2014-07-06T19:16:15.159Z,683
2014-07-06T19:16:32.769Z,681
2014-07-06T19:16:50.362Z,678
2014-07-06T19:17:08.599Z,676
2014-07-06T19:17:33.567Z,673
2014-07-06T19:17:51.802Z,670
2014-07-06T19:18:09.412Z,668
2014-07-06T19:18:27.006Z,665
2014-07-06T19:19:02.178Z,661
2014-07-06T19:20:02.337Z,652
2014-07-06T19:20:20.072Z,649
2014-07-06T19:20:37.682Z,646
2014-07-06T19:20:55.276Z,643
2014-07-06T19:22:06.154Z,628
2014-07-06T19:22:24.373Z,625
2014-07-06T19:22:41.983Z,621
2014-07-06T19:23:00.201Z,617
2014-07-06T19:23:17.813Z,613
2014-07-06T19:24:10.534Z,608
2014-07-06T19:25:21.864Z,586
2014-07-06T19:26:32.475Z,573
2014-07-06T19:26:49.459Z,569
2014-07-06T19:27:07.678Z,566
2014-07-06T19:27:25.291Z,563
2014-07-06T19:27:43.525Z,560
2014-07-06T19:28:01.134Z,557
2014-07-06T19:28:18.728Z,552
2014-07-06T19:28:36.463Z,547
2014-07-06T19:28:54.073Z,545
2014-07-06T19:29:11.667Z,542
2014-07-06T19:29:42.950Z,536
